^^
Meteo Knjazevac Station Historical Data
Daily Summary for October 02, 2022 Units:  Both    English   Metric
Daily Weekly Monthly Yearly Custom
  High: Low: Average:
Temperature: 70.2 °F /  21.2 °C 51.1 °F /  10.6 °C 57.6 °F /  14.2 °C
Dew Point: 65.3 °F /  18.5 °C 50.8 °F /  10.4 °C 56.4 °F /  13.6 °C
Humidity: 99% 78.1% 96%
Wind Speed: 8.4mph /  13.5km/h - 3.2mph /  5.1km/h
Wind Gust: 10mph /  16.1km/h - -
Wind- - WSW
Pressure: 30.16 in /  1021.2 hPa 30.12 in /  1019.9 hPa -
Precipitation: 0.01 in /  0.25 mm    
Historical Graphs
 
 
Tabular Data for October 02, 2022
Time Temperature Dew Point Pressure Wind Wind Speed Wind Gust Humidity Rainfall Rate (Hourly) solar Conditions
00:04 56.4 °F /  13.6 °C 55.8 °F /  13.2 °C 30.12in /  1019.9hPa NW 2.2mph /  3.5km/h 3mph /  4.8km/h 98% 0.00in /  0mm 0 W/m2
00:09 56.4 °F /  13.6 °C 55.8 °F /  13.2 °C 30.12in /  1019.9hPa WNW 2.1mph /  3.4km/h 3mph /  4.8km/h 98% 0.00in /  0mm 0 W/m2
00:14 56.3 °F /  13.5 °C 55.7 °F /  13.2 °C 30.13in /  1020.2hPa WNW 1.3mph /  2.1km/h 3mph /  4.8km/h 98% 0.00in /  0mm 0 W/m2
00:19 56.2 °F /  13.4 °C 55.6 °F /  13.1 °C 30.13in /  1020.2hPa NW 1.8mph /  2.9km/h 2mph /  3.2km/h 98% 0.00in /  0mm 0 W/m2
00:24 56.1 °F /  13.4 °C 55.6 °F /  13.1 °C 30.13in /  1020.2hPa NW 1.5mph /  2.4km/h 2mph /  3.2km/h 98% 0.00in /  0mm 0 W/m2
00:29 55.9 °F /  13.3 °C 55.4 °F /  13 °C 30.13in /  1020.2hPa NW 1.6mph /  2.6km/h 2mph /  3.2km/h 98% 0.00in /  0mm 0 W/m2
00:34 55.8 °F /  13.2 °C 55.2 °F /  12.9 °C 30.13in /  1020.2hPa NW 1.1mph /  1.8km/h 2mph /  3.2km/h 98% 0.00in /  0mm 0 W/m2
00:39 55.7 °F /  13.2 °C 55.1 °F /  12.8 °C 30.13in /  1020.2hPa NW 1.7mph /  2.7km/h 2mph /  3.2km/h 98% 0.00in /  0mm 0 W/m2
00:44 55.3 °F /  12.9 °C 54.8 °F /  12.7 °C 30.13in /  1020.2hPa NW 1.5mph /  2.4km/h 2mph /  3.2km/h 98% 0.00in /  0mm 0 W/m2
00:49 55.1 °F /  12.8 °C 54.8 °F /  12.7 °C 30.13in /  1020.2hPa West 1.9mph /  3.1km/h 2mph /  3.2km/h 98.9% 0.00in /  0mm 0 W/m2
00:54 55 °F /  12.8 °C 54.8 °F /  12.7 °C 30.13in /  1020.2hPa WSW 2.1mph /  3.4km/h 2mph /  3.2km/h 99% 0.00in /  0mm 0 W/m2
00:59 54.9 °F /  12.7 °C 54.6 °F /  12.6 °C 30.13in /  1020.2hPa West 2.1mph /  3.4km/h 3mph /  4.8km/h 99% 0.00in /  0mm 0 W/m2
01:04 54.8 °F /  12.7 °C 54.5 °F /  12.5 °C 30.13in /  1020.2hPa WNW 1.5mph /  2.4km/h 3mph /  4.8km/h 99% 0.00in /  0mm 0 W/m2
01:09 54.7 °F /  12.6 °C 54.4 °F /  12.4 °C 30.12in /  1019.9hPa NW 2.3mph /  3.7km/h 2mph /  3.2km/h 99% 0.00in /  0mm 0 W/m2
01:14 54.7 °F /  12.6 °C 54.4 °F /  12.4 °C 30.12in /  1019.9hPa WNW 2.5mph /  4km/h 2.2mph /  3.5km/h 99% 0.00in /  0mm 0 W/m2
01:19 54.5 °F /  12.5 °C 54.2 °F /  12.3 °C 30.12in /  1019.9hPa WNW 3.5mph /  5.6km/h 3mph /  4.8km/h 99% 0.00in /  0mm 0 W/m2
01:24 54.5 °F /  12.5 °C 54.2 °F /  12.3 °C 30.12in /  1019.9hPa WNW 2.5mph /  4km/h 4mph /  6.4km/h 99% 0.00in /  0mm 0 W/m2
01:29 54.5 °F /  12.5 °C 54.2 °F /  12.3 °C 30.13in /  1020.2hPa NW 2.2mph /  3.5km/h 2mph /  3.2km/h 99% 0.00in /  0mm 0 W/m2
01:34 54.5 °F /  12.5 °C 54.2 °F /  12.3 °C 30.13in /  1020.2hPa NW 2.2mph /  3.5km/h 2mph /  3.2km/h 99% 0.00in /  0mm 0 W/m2
01:39 54.4 °F /  12.4 °C 54.1 °F /  12.3 °C 30.13in /  1020.2hPa NW 1.5mph /  2.4km/h 2mph /  3.2km/h 99% 0.00in /  0mm 0 W/m2
01:44 54.2 °F /  12.3 °C 54 °F /  12.2 °C 30.13in /  1020.2hPa NW 1.6mph /  2.6km/h 2mph /  3.2km/h 99% 0.00in /  0mm 0 W/m2
01:49 54.1 °F /  12.3 °C 53.8 °F /  12.1 °C 30.13in /  1020.2hPa WNW 1mph /  1.6km/h 2mph /  3.2km/h 99% 0.00in /  0mm 0 W/m2
01:54 53.9 °F /  12.2 °C 53.6 °F /  12 °C 30.13in /  1020.2hPa West 0.4mph /  0.6km/h 2mph /  3.2km/h 99% 0.00in /  0mm 0 W/m2
01:59 53.7 °F /  12.1 °C 53.4 °F /  11.9 °C 30.13in /  1020.2hPa NNW 1.7mph /  2.7km/h 1.1mph /  1.8km/h 99% 0.00in /  0mm 0 W/m2
02:04 53.5 °F /  11.9 °C 53.2 °F /  11.8 °C 30.13in /  1020.2hPa NW 2.2mph /  3.5km/h 2mph /  3.2km/h 99% 0.00in /  0mm 0 W/m2
02:09 53.3 °F /  11.8 °C 53.1 °F /  11.7 °C 30.13in /  1020.2hPa West 3.3mph /  5.3km/h 3.1mph /  5km/h 99% 0.00in /  0mm 0 W/m2
02:14 53.1 °F /  11.7 °C 52.9 °F /  11.6 °C 30.13in /  1020.2hPa West 2.7mph /  4.3km/h 5mph /  8km/h 99% 0.00in /  0mm 0 W/m2
02:19 53 °F /  11.7 °C 52.7 °F /  11.5 °C 30.13in /  1020.2hPa West 2.4mph /  3.9km/h 4mph /  6.4km/h 99% 0.00in /  0mm 0 W/m2
02:24 52.8 °F /  11.6 °C 52.5 °F /  11.4 °C 30.13in /  1020.2hPa WSW 2.3mph /  3.7km/h 3mph /  4.8km/h 99% 0.00in /  0mm 0 W/m2
02:29 52.7 °F /  11.5 °C 52.4 °F /  11.3 °C 30.13in /  1020.2hPa West 3.4mph /  5.5km/h 3mph /  4.8km/h 99% 0.00in /  0mm 0 W/m2
02:34 52.5 °F /  11.4 °C 52.2 °F /  11.2 °C 30.12in /  1019.9hPa WNW 4.4mph /  7.1km/h 5mph /  8km/h 99% 0.00in /  0mm 0 W/m2
02:39 52.5 °F /  11.4 °C 52.2 °F /  11.2 °C 30.13in /  1020.2hPa West 3.7mph /  6km/h 5mph /  8km/h 99% 0.00in /  0mm 0 W/m2
02:44 52.6 °F /  11.4 °C 52.3 °F /  11.3 °C 30.12in /  1019.9hPa WNW 3.1mph /  5km/h 4mph /  6.4km/h 99% 0.00in /  0mm 0 W/m2
02:49 52.7 °F /  11.5 °C 52.4 °F /  11.3 °C 30.12in /  1019.9hPa WNW 2.9mph /  4.7km/h 3mph /  4.8km/h 99% 0.00in /  0mm 0 W/m2
02:54 52.7 °F /  11.5 °C 52.4 °F /  11.3 °C 30.12in /  1019.9hPa West 3.4mph /  5.5km/h 3mph /  4.8km/h 99% 0.00in /  0mm 0 W/m2
02:59 52.7 °F /  11.5 °C 52.4 °F /  11.3 °C 30.12in /  1019.9hPa West 2.8mph /  4.5km/h 3mph /  4.8km/h 99% 0.00in /  0mm 0 W/m2
03:04 52.6 °F /  11.4 °C 52.3 °F /  11.3 °C 30.12in /  1019.9hPa West 1.7mph /  2.7km/h 3mph /  4.8km/h 99% 0.00in /  0mm 0 W/m2
03:09 52.5 °F /  11.4 °C 52.2 °F /  11.2 °C 30.12in /  1019.9hPa WNW 1.6mph /  2.6km/h 2mph /  3.2km/h 99% 0.00in /  0mm 0 W/m2
03:14 52.4 °F /  11.3 °C 52.1 °F /  11.2 °C 30.12in /  1019.9hPa NW 1.7mph /  2.7km/h 2mph /  3.2km/h 99% 0.00in /  0mm 0 W/m2
03:19 52.3 °F /  11.3 °C 52 °F /  11.1 °C 30.12in /  1019.9hPa NW 1.7mph /  2.7km/h 2mph /  3.2km/h 99% 0.00in /  0mm 0 W/m2
03:24 52.2 °F /  11.2 °C 51.9 °F /  11.1 °C 30.12in /  1019.9hPa WNW 1.7mph /  2.7km/h 2mph /  3.2km/h 99% 0.00in /  0mm 0 W/m2
03:29 52.1 °F /  11.2 °C 51.8 °F /  11 °C 30.12in /  1019.9hPa NW 3.2mph /  5.1km/h 3mph /  4.8km/h 99% 0.00in /  0mm 0 W/m2
03:34 52.1 °F /  11.2 °C 51.8 °F /  11 °C 30.12in /  1019.9hPa WNW 3.1mph /  5km/h 4mph /  6.4km/h 99% 0.00in /  0mm 0 W/m2
03:39 52.1 °F /  11.2 °C 51.8 °F /  11 °C 30.12in /  1019.9hPa WNW 2.5mph /  4km/h 3mph /  4.8km/h 99% 0.00in /  0mm 0 W/m2
03:44 52.1 °F /  11.2 °C 51.8 °F /  11 °C 30.12in /  1019.9hPa WNW 2.5mph /  4km/h 3mph /  4.8km/h 99% 0.00in /  0mm 0 W/m2
03:49 52 °F /  11.1 °C 51.7 °F /  10.9 °C 30.12in /  1019.9hPa West 1.4mph /  2.3km/h 3mph /  4.8km/h 99% 0.00in /  0mm 0 W/m2
03:54 51.8 °F /  11 °C 51.6 °F /  10.9 °C 30.12in /  1019.9hPa West 2.2mph /  3.5km/h 3mph /  4.8km/h 99% 0.00in /  0mm 0 W/m2
03:59 51.7 °F /  10.9 °C 51.4 °F /  10.8 °C 30.12in /  1019.9hPa West 1.8mph /  2.9km/h 3mph /  4.8km/h 99% 0.00in /  0mm 0 W/m2
04:04 51.5 °F /  10.8 °C 51.3 °F /  10.7 °C 30.12in /  1019.9hPa West 2.1mph /  3.4km/h 2mph /  3.2km/h 99% 0.00in /  0mm 0 W/m2
04:09 51.4 °F /  10.8 °C 51.2 °F /  10.7 °C 30.13in /  1020.2hPa WSW 2.9mph /  4.7km/h 2.5mph /  4km/h 99% 0.00in /  0mm 0 W/m2
04:14 51.3 °F /  10.7 °C 51 °F /  10.6 °C 30.13in /  1020.2hPa West 2.3mph /  3.7km/h 4mph /  6.4km/h 99% 0.00in /  0mm 0 W/m2
04:19 51.2 °F /  10.7 °C 50.9 °F /  10.5 °C 30.12in /  1019.9hPa West 2.6mph /  4.2km/h 2.9mph /  4.7km/h 99% 0.00in /  0mm 0 W/m2
04:24 51.1 °F /  10.6 °C 50.8 °F /  10.4 °C 30.12in /  1019.9hPa West 3mph /  4.8km/h 4mph /  6.4km/h 99% 0.00in /  0mm 0 W/m2
04:29 51.1 °F /  10.6 °C 50.8 °F /  10.4 °C 30.12in /  1019.9hPa West 3.9mph /  6.3km/h 3.4mph /  5.5km/h 99% 0.00in /  0mm 0 W/m2
04:34 51.2 °F /  10.7 °C 50.9 °F /  10.5 °C 30.13in /  1020.2hPa West 3.6mph /  5.8km/h 5mph /  8km/h 99% 0.00in /  0mm 0 W/m2
04:39 51.3 °F /  10.7 °C 51 °F /  10.6 °C 30.13in /  1020.2hPa West 4.2mph /  6.8km/h 5mph /  8km/h 99% 0.00in /  0mm 0 W/m2
04:44 51.3 °F /  10.7 °C 51 °F /  10.6 °C 30.13in /  1020.2hPa West 3.4mph /  5.5km/h 5mph /  8km/h 99% 0.00in /  0mm 0 W/m2
04:49 51.1 °F /  10.6 °C 50.8 °F /  10.4 °C 30.14in /  1020.5hPa West 3.1mph /  5km/h 3mph /  4.8km/h 99% 0.00in /  0mm 0 W/m2
04:54 51.1 °F /  10.6 °C 50.8 °F /  10.4 °C 30.14in /  1020.5hPa West 3.3mph /  5.3km/h 4mph /  6.4km/h 99% 0.00in /  0mm 0 W/m2
04:59 51.1 °F /  10.6 °C 50.8 °F /  10.4 °C 30.13in /  1020.2hPa WNW 2.8mph /  4.5km/h 4mph /  6.4km/h 99% 0.00in /  0mm 0 W/m2
05:04 51.3 °F /  10.7 °C 51 °F /  10.6 °C 30.13in /  1020.2hPa WNW 2.6mph /  4.2km/h 4mph /  6.4km/h 99% 0.00in /  0mm 0 W/m2
05:09 51.3 °F /  10.7 °C 51.1 °F /  10.6 °C 30.13in /  1020.2hPa West 3.3mph /  5.3km/h 3mph /  4.8km/h 99% 0.00in /  0mm 0 W/m2
05:14 51.4 °F /  10.8 °C 51.2 °F /  10.7 °C 30.13in /  1020.2hPa WNW 3.4mph /  5.5km/h 3mph /  4.8km/h 99% 0.00in /  0mm 0 W/m2
05:19 51.6 °F /  10.9 °C 51.3 °F /  10.7 °C 30.13in /  1020.2hPa WNW 2.9mph /  4.7km/h 3mph /  4.8km/h 99% 0.00in /  0mm 0 W/m2
05:24 51.7 °F /  10.9 °C 51.4 °F /  10.8 °C 30.13in /  1020.2hPa WNW 3.4mph /  5.5km/h 4mph /  6.4km/h 99% 0.00in /  0mm 0 W/m2
05:29 51.8 °F /  11 °C 51.5 °F /  10.8 °C 30.13in /  1020.2hPa West 2.8mph /  4.5km/h 3mph /  4.8km/h 99% 0.00in /  0mm 0 W/m2
05:34 51.7 °F /  10.9 °C 51.4 °F /  10.8 °C 30.13in /  1020.2hPa WNW 2.3mph /  3.7km/h 3mph /  4.8km/h 99% 0.00in /  0mm 0 W/m2
05:39 51.7 °F /  10.9 °C 51.4 °F /  10.8 °C 30.13in /  1020.2hPa WNW 3.2mph /  5.1km/h 3mph /  4.8km/h 99% 0.00in /  0mm 0 W/m2
05:44 51.8 °F /  11 °C 51.5 °F /  10.8 °C 30.13in /  1020.2hPa WNW 3.5mph /  5.6km/h 4mph /  6.4km/h 99% 0.00in /  0mm 0 W/m2
05:49 51.9 °F /  11.1 °C 51.6 °F /  10.9 °C 30.13in /  1020.2hPa West 3mph /  4.8km/h 4mph /  6.4km/h 99% 0.00in /  0mm 0 W/m2
05:54 51.9 °F /  11.1 °C 51.6 °F /  10.9 °C 30.13in /  1020.2hPa West 2.6mph /  4.2km/h 4mph /  6.4km/h 99% 0.00in /  0mm 0 W/m2
05:59 51.8 °F /  11 °C 51.5 °F /  10.8 °C 30.13in /  1020.2hPa WNW 3.5mph /  5.6km/h 4mph /  6.4km/h 99% 0.00in /  0mm 0 W/m2
06:04 51.8 °F /  11 °C 51.5 °F /  10.8 °C 30.13in /  1020.2hPa NW 1.8mph /  2.9km/h 4mph /  6.4km/h 99% 0.00in /  0mm 0 W/m2
06:09 51.7 °F /  10.9 °C 51.4 °F /  10.8 °C 30.13in /  1020.2hPa West 2.7mph /  4.3km/h 2.5mph /  4km/h 99% 0.00in /  0mm 0 W/m2
06:14 51.4 °F /  10.8 °C 51.2 °F /  10.7 °C 30.13in /  1020.2hPa SW 2.8mph /  4.5km/h 3mph /  4.8km/h 99% 0.00in /  0mm 0 W/m2
06:19 51.4 °F /  10.8 °C 51.1 °F /  10.6 °C 30.13in /  1020.2hPa WSW 3.2mph /  5.1km/h 3mph /  4.8km/h 99% 0.00in /  0mm 0 W/m2
06:24 51.3 °F /  10.7 °C 51 °F /  10.6 °C 30.13in /  1020.2hPa WSW 4.1mph /  6.6km/h 4mph /  6.4km/h 99% 0.00in /  0mm 1 W/m2
06:29 51.4 °F /  10.8 °C 51.1 °F /  10.6 °C 30.13in /  1020.2hPa West 4.3mph /  6.9km/h 5mph /  8km/h 99% 0.00in /  0mm 2 W/m2
06:34 51.6 °F /  10.9 °C 51.3 °F /  10.7 °C 30.14in /  1020.5hPa NW 3.2mph /  5.1km/h 6mph /  9.7km/h 99% 0.00in /  0mm 5 W/m2
06:39 51.8 °F /  11 °C 51.5 °F /  10.8 °C 30.14in /  1020.5hPa WNW 3.9mph /  6.3km/h 5mph /  8km/h 99% 0.00in /  0mm 8 W/m2
06:44 51.8 °F /  11 °C 51.5 °F /  10.8 °C 30.14in /  1020.5hPa WSW 3.2mph /  5.1km/h 5mph /  8km/h 99% 0.00in /  0mm 9 W/m2
06:49 51.6 °F /  10.9 °C 51.3 °F /  10.7 °C 30.14in /  1020.5hPa WSW 2.4mph /  3.9km/h 3mph /  4.8km/h 99% 0.00in /  0mm 13 W/m2
06:54 51.6 °F /  10.9 °C 51.3 °F /  10.7 °C 30.14in /  1020.5hPa WNW 1.3mph /  2.1km/h 3mph /  4.8km/h 99% 0.00in /  0mm 18 W/m2
06:59 51.8 °F /  11 °C 51.5 °F /  10.8 °C 30.13in /  1020.2hPa North 1.4mph /  2.3km/h 2mph /  3.2km/h 99% 0.00in /  0mm 28 W/m2
07:04 52 °F /  11.1 °C 51.7 °F /  10.9 °C 30.14in /  1020.5hPa NNE 1.1mph /  1.8km/h 2.7mph /  4.3km/h 99% 0.00in /  0mm 44 W/m2
07:09 52.2 °F /  11.2 °C 51.9 °F /  11.1 °C 30.14in /  1020.5hPa NW 2.8mph /  4.5km/h 3mph /  4.8km/h 99% 0.00in /  0mm 53 W/m2
07:14 52.2 °F /  11.2 °C 52 °F /  11.1 °C 30.14in /  1020.5hPa WNW 3.2mph /  5.1km/h 3mph /  4.8km/h 99% 0.00in /  0mm 64 W/m2
07:19 52.4 °F /  11.3 °C 52.2 °F /  11.2 °C 30.13in /  1020.2hPa NW 2.4mph /  3.9km/h 3mph /  4.8km/h 99% 0.00in /  0mm 78 W/m2
07:24 52.8 °F /  11.6 °C 52.5 °F /  11.4 °C 30.14in /  1020.5hPa NW 2.7mph /  4.3km/h 3mph /  4.8km/h 99% 0.00in /  0mm 81 W/m2
07:29 53.1 °F /  11.7 °C 52.9 °F /  11.6 °C 30.13in /  1020.2hPa NW 2.7mph /  4.3km/h 4mph /  6.4km/h 99% 0.00in /  0mm 77 W/m2
07:34 53.5 °F /  11.9 °C 53.2 °F /  11.8 °C 30.13in /  1020.2hPa NW 1.2mph /  1.9km/h 3mph /  4.8km/h 99% 0.00in /  0mm 66 W/m2
07:39 53.9 °F /  12.2 °C 53.6 °F /  12 °C 30.12in /  1019.9hPa NW 0.5mph /  0.8km/h 2mph /  3.2km/h 99% 0.00in /  0mm 71 W/m2
07:44 54.1 °F /  12.3 °C 53.8 °F /  12.1 °C 30.13in /  1020.2hPa WNW 2.2mph /  3.5km/h 2.5mph /  4km/h 99% 0.00in /  0mm 80 W/m2
07:49 54.1 °F /  12.3 °C 53.9 °F /  12.2 °C 30.14in /  1020.5hPa WSW 3.2mph /  5.1km/h 3mph /  4.8km/h 99% 0.00in /  0mm 89 W/m2
07:54 54.3 °F /  12.4 °C 54 °F /  12.2 °C 30.14in /  1020.5hPa WSW 3mph /  4.8km/h 4mph /  6.4km/h 99% 0.00in /  0mm 108 W/m2
07:59 54.7 °F /  12.6 °C 54.4 °F /  12.4 °C 30.14in /  1020.5hPa WSW 2.9mph /  4.7km/h 3mph /  4.8km/h 99% 0.00in /  0mm 117 W/m2
08:04 54.9 °F /  12.7 °C 54.7 °F /  12.6 °C 30.14in /  1020.5hPa SW 3.4mph /  5.5km/h 4mph /  6.4km/h 99% 0.00in /  0mm 131 W/m2
08:09 55.1 °F /  12.8 °C 54.8 °F /  12.7 °C 30.14in /  1020.5hPa WSW 4.1mph /  6.6km/h 5mph /  8km/h 99% 0.00in /  0mm 146 W/m2
08:14 55.4 °F /  13 °C 55.1 °F /  12.8 °C 30.14in /  1020.5hPa West 4.2mph /  6.8km/h 5mph /  8km/h 99% 0.00in /  0mm 140 W/m2
08:19 55.8 °F /  13.2 °C 55.5 °F /  13.1 °C 30.14in /  1020.5hPa West 4mph /  6.4km/h 5mph /  8km/h 99% 0.00in /  0mm 140 W/m2
08:24 56.3 °F /  13.5 °C 56 °F /  13.3 °C 30.14in /  1020.5hPa WSW 3.5mph /  5.6km/h 5mph /  8km/h 99% 0.00in /  0mm 125 W/m2
08:29 56.6 °F /  13.7 °C 56.4 °F /  13.6 °C 30.14in /  1020.5hPa WSW 2.6mph /  4.2km/h 3mph /  4.8km/h 99% 0.00in /  0mm 155 W/m2
08:34 57.2 °F /  14 °C 56.9 °F /  13.8 °C 30.14in /  1020.5hPa SW 3.3mph /  5.3km/h 4mph /  6.4km/h 99% 0.00in /  0mm 164 W/m2
08:39 57.5 °F /  14.2 °C 57.2 °F /  14 °C 30.14in /  1020.5hPa South 3.2mph /  5.1km/h 4mph /  6.4km/h 99% 0.00in /  0mm 175 W/m2
08:44 57.8 °F /  14.3 °C 57.5 °F /  14.2 °C 30.14in /  1020.5hPa SE 2.5mph /  4km/h 4mph /  6.4km/h 99% 0.00in /  0mm 162 W/m2
08:49 58.2 °F /  14.6 °C 57.9 °F /  14.4 °C 30.14in /  1020.5hPa North 2.2mph /  3.5km/h 3mph /  4.8km/h 99% 0.00in /  0mm 182 W/m2
08:54 58.6 °F /  14.8 °C 58.3 °F /  14.6 °C 30.14in /  1020.5hPa WNW 2.1mph /  3.4km/h 2mph /  3.2km/h 99% 0.00in /  0mm 212 W/m2
08:59 59.2 °F /  15.1 °C 58.9 °F /  14.9 °C 30.13in /  1020.2hPa West 3.3mph /  5.3km/h 3.8mph /  6.1km/h 99% 0.00in /  0mm 201 W/m2
09:04 59.5 °F /  15.3 °C 59.3 °F /  15.2 °C 30.13in /  1020.2hPa West 4mph /  6.4km/h 6mph /  9.7km/h 99% 0.00in /  0mm 131 W/m2
09:09 59.6 °F /  15.3 °C 59.3 °F /  15.2 °C 30.13in /  1020.2hPa West 3.8mph /  6.1km/h 5mph /  8km/h 99% 0.00in /  0mm 137 W/m2
09:14 59.8 °F /  15.4 °C 59.5 °F /  15.3 °C 30.13in /  1020.2hPa WSW 3.7mph /  6km/h 5mph /  8km/h 99% 0.00in /  0mm 147 W/m2
09:19 60.1 °F /  15.6 °C 59.8 °F /  15.4 °C 30.14in /  1020.5hPa WSW 3.4mph /  5.5km/h 4mph /  6.4km/h 99% 0.00in /  0mm 167 W/m2
09:24 60.5 °F /  15.8 °C 60.2 °F /  15.7 °C 30.14in /  1020.5hPa WSW 3.1mph /  5km/h 4mph /  6.4km/h 99% 0.00in /  0mm 192 W/m2
09:29 61 °F /  16.1 °C 60.7 °F /  15.9 °C 30.14in /  1020.5hPa SW 1.3mph /  2.1km/h 3mph /  4.8km/h 99% 0.00in /  0mm 284 W/m2
09:34 61.6 °F /  16.4 °C 61.3 °F /  16.3 °C 30.14in /  1020.5hPa SSW 2.9mph /  4.7km/h 2.5mph /  4km/h 99% 0.00in /  0mm 261 W/m2
09:39 62.1 °F /  16.7 °C 61.7 °F /  16.5 °C 30.14in /  1020.5hPa South 3.4mph /  5.5km/h 4mph /  6.4km/h 98.8% 0.00in /  0mm 253 W/m2
09:44 62.3 °F /  16.8 °C 61.7 °F /  16.5 °C 30.14in /  1020.5hPa SSW 3.4mph /  5.5km/h 3mph /  4.8km/h 97.6% 0.00in /  0mm 262 W/m2
09:49 62.8 °F /  17.1 °C 61.6 °F /  16.4 °C 30.14in /  1020.5hPa SW 3mph /  4.8km/h 3mph /  4.8km/h 96% 0.00in /  0mm 257 W/m2
09:54 63.2 °F /  17.3 °C 62 °F /  16.7 °C 30.14in /  1020.5hPa SW 2.9mph /  4.7km/h 3.1mph /  5km/h 96% 0.00in /  0mm 274 W/m2
09:59 63.6 °F /  17.6 °C 62.1 °F /  16.7 °C 30.14in /  1020.5hPa SW 3.1mph /  5km/h 4mph /  6.4km/h 95.3% 0.00in /  0mm 251 W/m2
10:04 63.9 °F /  17.7 °C 62.4 °F /  16.9 °C 30.14in /  1020.5hPa SW 3.1mph /  5km/h 4mph /  6.4km/h 95% 0.00in /  0mm 232 W/m2
10:09 64.1 °F /  17.8 °C 62.7 °F /  17.1 °C 30.14in /  1020.5hPa WSW 3.4mph /  5.5km/h 3mph /  4.8km/h 95% 0.00in /  0mm 247 W/m2
10:14 64.6 °F /  18.1 °C 63.2 °F /  17.3 °C 30.14in /  1020.5hPa WSW 3mph /  4.8km/h 4mph /  6.4km/h 95.2% 0.00in /  0mm 248 W/m2
10:19 65.3 °F /  18.5 °C 63.7 °F /  17.6 °C 30.14in /  1020.5hPa WSW 2.2mph /  3.5km/h 4mph /  6.4km/h 94.5% 0.00in /  0mm 241 W/m2
10:24 65.8 °F /  18.8 °C 63.9 °F /  17.7 °C 30.14in /  1020.5hPa SW 2.3mph /  3.7km/h 2mph /  3.2km/h 93.7% 0.00in /  0mm 226 W/m2
10:29 66.2 °F /  19 °C 64.1 °F /  17.8 °C 30.14in /  1020.5hPa SW 2.6mph /  4.2km/h 3mph /  4.8km/h 93% 0.00in /  0mm 222 W/m2
10:34 66.5 °F /  19.2 °C 64.4 °F /  18 °C 30.14in /  1020.5hPa SW 3.1mph /  5km/h 3mph /  4.8km/h 93% 0.00in /  0mm 220 W/m2
10:39 66.7 °F /  19.3 °C 64 °F /  17.8 °C 30.14in /  1020.5hPa SW 2.9mph /  4.7km/h 4mph /  6.4km/h 90.9% 0.00in /  0mm 211 W/m2
10:44 67 °F /  19.4 °C 64.1 °F /  17.8 °C 30.14in /  1020.5hPa SW 2.9mph /  4.7km/h 3mph /  4.8km/h 90.5% 0.00in /  0mm 208 W/m2
10:49 67.3 °F /  19.6 °C 64.1 °F /  17.8 °C 30.15in /  1020.9hPa SW 3.1mph /  5km/h 3mph /  4.8km/h 89.6% 0.00in /  0mm 251 W/m2
10:54 67.6 °F /  19.8 °C 64.2 °F /  17.9 °C 30.14in /  1020.5hPa SW 2.1mph /  3.4km/h 3mph /  4.8km/h 88.8% 0.00in /  0mm 276 W/m2
10:59 67.9 °F /  19.9 °C 64.1 °F /  17.8 °C 30.14in /  1020.5hPa South 1.6mph /  2.6km/h 2mph /  3.2km/h 87.7% 0.00in /  0mm 293 W/m2
11:04 68.3 °F /  20.2 °C 64.1 °F /  17.8 °C 30.14in /  1020.5hPa NE 2.7mph /  4.3km/h 3.1mph /  5km/h 86.5% 0.00in /  0mm 272 W/m2
11:09 68.6 °F /  20.3 °C 63.7 °F /  17.6 °C 30.14in /  1020.5hPa NE 3.7mph /  6km/h 5mph /  8km/h 84.4% 0.00in /  0mm 227 W/m2
11:14 69.1 °F /  20.6 °C 63.2 °F /  17.3 °C 30.14in /  1020.5hPa ESE 5.1mph /  8.2km/h 5mph /  8km/h 81.4% 0.00in /  0mm 207 W/m2
11:19 69.7 °F /  20.9 °C 63.3 °F /  17.4 °C 30.14in /  1020.5hPa South 5.2mph /  8.4km/h 6mph /  9.7km/h 80.2% 0.00in /  0mm 143 W/m2
11:24 70 °F /  21.1 °C 63.4 °F /  17.4 °C 30.15in /  1020.9hPa SSW 3.5mph /  5.6km/h 6mph /  9.7km/h 79.7% 0.00in /  0mm 141 W/m2
11:29 70.2 °F /  21.2 °C 63.5 °F /  17.5 °C 30.15in /  1020.9hPa SW 5.9mph /  9.5km/h 6.9mph /  11.1km/h 79.5% 0.00in /  0mm 123 W/m2
11:34 70.2 °F /  21.2 °C 63 °F /  17.2 °C 30.15in /  1020.9hPa SSW 7.3mph /  11.7km/h 9mph /  14.5km/h 78.1% 0.00in /  0mm 100 W/m2
11:39 70.1 °F /  21.2 °C 63.2 °F /  17.3 °C 30.15in /  1020.9hPa SSW 5.6mph /  9km/h 9mph /  14.5km/h 78.7% 0.00in /  0mm 73 W/m2
11:44 69.8 °F /  21 °C 63 °F /  17.2 °C 30.16in /  1021.2hPa SSW 5.6mph /  9km/h 7mph /  11.3km/h 79% 0.00in /  0mm 51 W/m2
11:49 69.5 °F /  20.8 °C 63.1 °F /  17.3 °C 30.16in /  1021.2hPa SSW 4.5mph /  7.2km/h 8mph /  12.9km/h 79.9% 0.00in /  0mm 50 W/m2
11:54 69.3 °F /  20.7 °C 63 °F /  17.2 °C 30.16in /  1021.2hPa SSW 5.7mph /  9.2km/h 6mph /  9.7km/h 80.5% 0.00in /  0mm 54 W/m2
11:59 69 °F /  20.6 °C 63.2 °F /  17.3 °C 30.16in /  1021.2hPa SSW 6.5mph /  10.5km/h 7mph /  11.3km/h 82.1% 0.00in /  0mm 53 W/m2
12:04 68.6 °F /  20.3 °C 63.5 °F /  17.5 °C 30.16in /  1021.2hPa SW 7.3mph /  11.7km/h 7mph /  11.3km/h 83.8% 0.00in /  0mm 58 W/m2
12:09 68.1 °F /  20.1 °C 63.3 °F /  17.4 °C 30.16in /  1021.2hPa SW 6.7mph /  10.8km/h 8mph /  12.9km/h 84.7% 0.00in /  0mm 64 W/m2
12:14 67.7 °F /  19.8 °C 63.2 °F /  17.3 °C 30.15in /  1020.9hPa SW 5mph /  8km/h 7mph /  11.3km/h 85.6% 0.00in /  0mm 67 W/m2
12:19 67.3 °F /  19.6 °C 63.7 °F /  17.6 °C 30.15in /  1020.9hPa SSW 4.3mph /  6.9km/h 6mph /  9.7km/h 88.3% 0.01in /  0.25mm 72 W/m2
12:24 67 °F /  19.4 °C 63.9 °F /  17.7 °C 30.15in /  1020.9hPa SSW 2.9mph /  4.7km/h 5mph /  8km/h 89.7% 0.01in /  0.25mm 96 W/m2
12:29 66.7 °F /  19.3 °C 63.9 °F /  17.7 °C 30.14in /  1020.5hPa South 2.9mph /  4.7km/h 3mph /  4.8km/h 90.6% 0.01in /  0.25mm 209 W/m2
12:34 66.7 °F /  19.3 °C 64.7 °F /  18.2 °C 30.13in /  1020.2hPa SSW 3.9mph /  6.3km/h 3.6mph /  5.8km/h 93.3% 0.01in /  0.25mm 223 W/m2
12:39 66.7 °F /  19.3 °C 65 °F /  18.3 °C 30.13in /  1020.2hPa SW 6.3mph /  10.1km/h 6mph /  9.7km/h 94% 0.01in /  0.25mm 226 W/m2
12:44 66.8 °F /  19.3 °C 65.1 °F /  18.4 °C 30.12in /  1019.9hPa SW 6.9mph /  11.1km/h 7mph /  11.3km/h 94% 0.01in /  0.25mm 214 W/m2
12:49 67.1 °F /  19.5 °C 64.9 °F /  18.3 °C 30.12in /  1019.9hPa SW 8.4mph /  13.5km/h 7mph /  11.3km/h 92.5% 0.01in /  0.25mm 209 W/m2
12:54 67.3 °F /  19.6 °C 64.9 °F /  18.3 °C 30.12in /  1019.9hPa SW 8.2mph /  13.2km/h 10mph /  16.1km/h 91.9% 0.01in /  0.25mm 192 W/m2
12:59 67.4 °F /  19.7 °C 65.3 °F /  18.5 °C 30.12in /  1019.9hPa SW 6.7mph /  10.8km/h 9mph /  14.5km/h 92.8% 0.01in /  0.25mm 167 W/m2
13:04 67.5 °F /  19.7 °C 65 °F /  18.3 °C 30.12in /  1019.9hPa SW 5.4mph /  8.7km/h 7mph /  11.3km/h 91.8% 0.01in /  0.25mm 111 W/m2
13:09 67.5 °F /  19.7 °C 64.7 °F /  18.2 °C 30.12in /  1019.9hPa SW 5.3mph /  8.5km/h 6mph /  9.7km/h 91% 0.01in /  0.25mm 61 W/m2
13:14 67.3 °F /  19.6 °C 64.6 °F /  18.1 °C 30.12in /  1019.9hPa WSW 6.1mph /  9.8km/h 6mph /  9.7km/h 91% 0.01in /  0.25mm 66 W/m2
13:19 67.1 °F /  19.5 °C 64.4 °F /  18 °C 30.12in /  1019.9hPa WSW 5.4mph /  8.7km/h 7mph /  11.3km/h 90.8% 0.01in /  0.25mm 66 W/m2
13:24 66.9 °F /  19.4 °C 64.2 °F /  17.9 °C 30.12in /  1019.9hPa WSW 6.6mph /  10.6km/h 6mph /  9.7km/h 91% 0.00in /  0mm 62 W/m2
13:25 66.9 °F /  19.4 °C 64.2 °F /  17.9 °C 30.12in /  1019.9hPa WSW 3mph /  4.8km/h 7mph /  11.3km/h 91% 0.00in /  0mm 46 W/m2
Knjazevac, Serbia
Compliments of Weather Underground - 2 mb